createdAt,value
2018-02-17T00:00:18.203Z,21.53
2018-02-17T00:02:45.853Z,18.30
2018-02-17T00:05:13.505Z,18.33
2018-02-17T00:07:41.089Z,16.97
2018-02-17T00:10:08.671Z,17.13
2018-02-17T00:12:36.292Z,17.90
2018-02-17T00:15:03.996Z,17.43
2018-02-17T00:17:31.611Z,22.33
2018-02-17T00:19:59.244Z,19.23
2018-02-17T00:22:26.830Z,22.17
2018-02-17T00:24:54.413Z,21.23
2018-02-17T00:27:22.074Z,22.90
2018-02-17T00:29:49.658Z,22.67
2018-02-17T00:32:17.238Z,22.67
2018-02-17T00:34:45.210Z,23.83
2018-02-17T00:37:12.873Z,28.80
2018-02-17T00:39:40.431Z,23.50
2018-02-17T00:42:08.081Z,25.03
2018-02-17T00:44:35.887Z,24.10
2018-02-17T00:47:03.475Z,22.10
2018-02-17T00:49:31.434Z,23.17
2018-02-17T00:51:59.011Z,22.37
2018-02-17T00:54:26.654Z,25.20
2018-02-17T00:56:54.290Z,25.00
2018-02-17T00:59:21.965Z,26.30
2018-02-17T01:01:49.581Z,21.20
2018-02-17T01:04:17.216Z,22.63
2018-02-17T01:06:44.861Z,20.27
2018-02-17T01:09:12.544Z,20.13
2018-02-17T01:11:40.172Z,22.97
2018-02-17T01:14:07.778Z,21.20
2018-02-17T01:16:35.377Z,20.70
2018-02-17T01:19:03.013Z,21.63
2018-02-17T01:21:30.595Z,19.33
2018-02-17T01:23:58.184Z,21.60
2018-02-17T01:26:25.894Z,20.17
2018-02-17T01:28:53.476Z,22.13
2018-02-17T01:31:21.090Z,26.37
2018-02-17T01:33:48.736Z,28.27
2018-02-17T01:36:16.312Z,32.97
2018-02-17T01:38:44.010Z,33.80
2018-02-17T01:41:11.630Z,33.60
2018-02-17T01:43:39.223Z,31.03
2018-02-17T01:46:06.902Z,31.13
2018-02-17T01:48:34.548Z,30.70
2018-02-17T01:51:02.125Z,30.43
2018-02-17T01:53:29.717Z,31.50
2018-02-17T01:55:57.599Z,31.20
2018-02-17T01:58:25.297Z,29.63
2018-02-17T02:00:52.913Z,28.43
2018-02-17T02:03:20.563Z,28.30
2018-02-17T02:05:48.210Z,29.70
2018-02-17T02:08:15.807Z,28.37
2018-02-17T02:10:43.534Z,30.37
2018-02-17T02:13:11.112Z,31.73
2018-02-17T02:15:38.684Z,31.93
2018-02-17T02:18:06.328Z,29.10
2018-02-17T02:20:33.949Z,29.33
2018-02-17T02:23:02.162Z,29.03
2018-02-17T02:25:29.809Z,29.50
2018-02-17T02:27:57.417Z,28.33
2018-02-17T02:30:25.010Z,30.43
2018-02-17T02:32:52.874Z,29.50
2018-02-17T02:35:20.475Z,30.33
2018-02-17T02:37:48.047Z,31.23
2018-02-17T02:40:15.895Z,31.30
2018-02-17T02:42:43.472Z,29.97
2018-02-17T02:45:17.995Z,34.77
2018-02-17T02:47:45.725Z,31.00
2018-02-17T02:50:13.318Z,34.63
2018-02-17T02:52:41.611Z,29.97
2018-02-17T02:55:09.202Z,29.97
2018-02-17T02:57:36.775Z,34.47
2018-02-17T03:00:04.463Z,30.30
2018-02-17T03:02:32.038Z,31.23
2018-02-17T03:04:59.618Z,32.80
2018-02-17T03:07:27.542Z,32.93
2018-02-17T03:09:55.201Z,31.37
2018-02-17T03:12:22.782Z,32.43
2018-02-17T03:14:50.420Z,30.73
2018-02-17T03:17:18.006Z,33.10
2018-02-17T03:19:45.582Z,33.27
2018-02-17T03:22:13.215Z,35.30
2018-02-17T03:24:41.700Z,29.77
2018-02-17T03:27:09.351Z,30.30
2018-02-17T03:29:37.047Z,29.80
2018-02-17T03:32:04.766Z,28.60
2018-02-17T03:34:32.370Z,31.40
2018-02-17T03:36:59.988Z,31.00
2018-02-17T03:39:27.618Z,33.27
2018-02-17T03:41:55.302Z,37.90
2018-02-17T03:44:23.220Z,42.03
2018-02-17T03:46:50.806Z,34.13
2018-02-17T03:49:18.748Z,27.23
2018-02-17T03:51:46.404Z,29.77
2018-02-17T03:54:13.977Z,35.83
2018-02-17T03:56:41.565Z,33.93
2018-02-17T03:59:09.198Z,38.13
2018-02-17T04:01:36.789Z,110.87
2018-02-17T04:04:04.392Z,100.50
2018-02-17T04:06:32.024Z,36.87
2018-02-17T04:08:59.605Z,41.33
2018-02-17T04:11:27.201Z,41.60
2018-02-17T04:13:54.828Z,37.43
2018-02-17T04:16:22.399Z,39.50
2018-02-17T04:18:50.030Z,34.63
2018-02-17T04:21:17.639Z,39.13
2018-02-17T04:23:45.306Z,66.13
2018-02-17T04:26:12.873Z,448.40
2018-02-17T04:28:42.554Z,332.90
2018-02-17T04:31:10.141Z,363.23
2018-02-17T04:33:37.709Z,691.87
2018-02-17T04:36:05.341Z,428.90
2018-02-17T04:38:32.952Z,357.10
2018-02-17T04:41:03.562Z,407.50
2018-02-17T04:43:34.009Z,663.90
2018-02-17T04:46:17.408Z,557.50
2018-02-17T04:48:45.073Z,86.27
2018-02-17T04:51:18.155Z,170.83
2018-02-17T04:53:51.231Z,73.80
2018-02-17T04:56:20.600Z,170.63
2018-02-17T04:58:52.232Z,99.30
2018-02-17T05:01:21.724Z,446.60
2018-02-17T05:03:50.084Z,212.83
2018-02-17T05:06:20.706Z,107.30
2018-02-17T05:08:48.322Z,168.90
2018-02-17T05:11:15.906Z,86.70
2018-02-17T05:13:43.552Z,65.30
2018-02-17T05:16:13.036Z,114.20
2018-02-17T05:18:46.297Z,317.30
2018-02-17T05:21:18.738Z,416.33
2018-02-17T05:23:50.016Z,665.53
2018-02-17T05:26:19.991Z,252.07
2018-02-17T05:28:47.972Z,159.60
2018-02-17T05:31:30.711Z,459.03
2018-02-17T05:34:14.952Z,589.37
2018-02-17T05:36:48.229Z,271.03
2018-02-17T05:39:15.903Z,415.77
2018-02-17T05:41:59.189Z,398.70
2018-02-17T05:44:41.733Z,288.47
2018-02-17T05:47:25.093Z,274.87
2018-02-17T05:49:53.092Z,188.77
2018-02-17T05:52:20.660Z,333.67
2018-02-17T05:54:48.290Z,333.70
2018-02-17T05:57:15.877Z,448.70
2018-02-17T05:59:43.457Z,226.53
2018-02-17T06:02:12.169Z,205.07
2018-02-17T06:04:39.780Z,343.33
2018-02-17T06:07:07.382Z,211.87
2018-02-17T06:09:35.023Z,217.70
2018-02-17T06:12:02.632Z,230.53
2018-02-17T06:14:30.262Z,424.10
2018-02-17T06:16:57.941Z,352.23
2018-02-17T06:19:25.527Z,205.10
2018-02-17T06:21:53.163Z,175.50
2018-02-17T06:24:20.881Z,222.10
2018-02-17T06:26:48.460Z,136.50
2018-02-17T06:29:16.118Z,78.73
2018-02-17T06:31:43.770Z,253.17
2018-02-17T06:34:11.332Z,168.47
2018-02-17T06:36:38.982Z,131.60
2018-02-17T06:39:06.919Z,367.20
2018-02-17T06:41:34.517Z,221.83
2018-02-17T06:44:02.098Z,168.47
2018-02-17T06:46:29.874Z,238.83
2018-02-17T06:48:57.451Z,174.17
2018-02-17T06:51:25.025Z,133.80
2018-02-17T06:53:52.672Z,318.60
2018-02-17T06:56:20.314Z,179.43
2018-02-17T06:58:47.931Z,218.30
2018-02-17T07:01:15.571Z,200.17
2018-02-17T07:03:43.146Z,161.77
2018-02-17T07:06:10.732Z,223.50
2018-02-17T07:08:38.418Z,151.00
2018-02-17T07:11:06.040Z,234.37
2018-02-17T07:13:33.626Z,305.13
2018-02-17T07:16:01.279Z,198.70
2018-02-17T07:18:29.469Z,83.00
2018-02-17T07:20:57.044Z,65.60
2018-02-17T07:23:25.273Z,116.00
2018-02-17T07:25:53.106Z,170.27
2018-02-17T07:28:20.728Z,180.17
2018-02-17T07:30:48.377Z,100.73
2018-02-17T07:33:15.957Z,86.77
2018-02-17T07:35:43.524Z,76.53
2018-02-17T07:38:11.150Z,133.20
2018-02-17T07:40:38.730Z,56.07
2018-02-17T07:43:06.310Z,35.97
2018-02-17T07:45:33.927Z,47.97
2018-02-17T07:48:01.588Z,41.57
2018-02-17T07:50:29.156Z,45.30
2018-02-17T07:52:56.780Z,45.03
2018-02-17T07:55:24.389Z,65.73
2018-02-17T07:57:51.977Z,92.63
2018-02-17T08:00:19.842Z,111.83
2018-02-17T08:02:47.446Z,121.40
2018-02-17T08:07:55.269Z,102.93
2018-02-17T08:10:22.851Z,81.00
2018-02-17T08:12:50.510Z,138.67
2018-02-17T08:15:18.892Z,83.63
2018-02-17T08:17:47.514Z,126.60
2018-02-17T08:20:20.483Z,60.87
2018-02-17T08:22:51.405Z,104.90
2018-02-17T08:28:02.561Z,59.23
2018-02-17T08:30:33.124Z,70.07
2018-02-17T08:33:04.698Z,62.03
2018-02-17T08:35:34.764Z,67.97
2018-02-17T08:38:02.406Z,75.50
2018-02-17T08:40:30.136Z,83.93
2018-02-17T08:43:00.008Z,89.30
2018-02-17T08:45:27.671Z,86.17
2018-02-17T08:47:55.968Z,92.77
2018-02-17T08:50:24.300Z,84.67
2018-02-17T08:52:52.048Z,105.97
2018-02-17T08:55:19.867Z,100.43
2018-02-17T08:57:48.352Z,110.87
2018-02-17T09:00:16.112Z,109.43
2018-02-17T09:02:44.176Z,113.40
2018-02-17T09:05:12.376Z,100.90
2018-02-17T09:07:39.991Z,83.40
2018-02-17T09:10:08.623Z,107.63
2018-02-17T09:12:37.670Z,100.10
2018-02-17T09:15:06.226Z,105.73
2018-02-17T09:17:33.848Z,106.27
2018-02-17T09:20:03.619Z,113.07
2018-02-17T09:22:31.227Z,101.77
2018-02-17T09:24:58.904Z,89.73
2018-02-17T09:27:26.708Z,87.80
2018-02-17T09:29:54.313Z,72.77
2018-02-17T09:32:21.896Z,109.47
2018-02-17T09:34:49.615Z,176.80
2018-02-17T09:37:17.230Z,82.40
2018-02-17T09:39:44.857Z,73.37
2018-02-17T09:42:12.731Z,73.17
2018-02-17T09:44:40.320Z,61.23
2018-02-17T09:47:07.915Z,59.00
2018-02-17T09:49:35.554Z,61.50
2018-02-17T09:52:03.215Z,62.23
2018-02-17T09:54:30.806Z,61.43
2018-02-17T09:56:58.524Z,54.43
2018-02-17T09:59:31.290Z,66.73
2018-02-17T10:01:58.946Z,64.60
2018-02-17T10:04:26.618Z,62.20
2018-02-17T10:06:54.245Z,61.33
2018-02-17T10:09:24.120Z,52.23
2018-02-17T10:11:52.750Z,52.47
2018-02-17T10:14:20.328Z,52.40
2018-02-17T10:16:50.088Z,51.73
2018-02-17T10:22:31.428Z,49.70
2018-02-17T10:24:59.091Z,48.93
2018-02-17T10:27:27.168Z,43.63
2018-02-17T10:29:55.072Z,55.33
2018-02-17T10:32:42.908Z,47.03
2018-02-17T10:43:58.920Z,47.27
2018-02-17T10:46:28.996Z,40.70
2018-02-17T10:49:01.575Z,48.27
2018-02-17T10:51:30.784Z,45.73
2018-02-17T10:54:00.421Z,51.80
2018-02-17T10:56:29.164Z,47.70
2018-02-17T10:59:04.036Z,51.13
2018-02-17T11:01:41.226Z,47.43
2018-02-17T11:09:48.966Z,50.87
2018-02-17T11:15:01.118Z,51.23
2018-02-17T11:17:30.543Z,46.63
2018-02-17T11:20:15.575Z,47.73
2018-02-17T11:28:48.815Z,54.53
2018-02-17T11:31:16.491Z,50.97
2018-02-17T11:33:44.077Z,55.40
2018-02-17T11:36:12.717Z,46.17
2018-02-17T11:38:40.374Z,45.60
2018-02-17T11:41:08.048Z,47.77
2018-02-17T11:43:35.689Z,48.17
2018-02-17T11:46:03.362Z,50.60
2018-02-17T11:48:31.002Z,46.70
2018-02-17T11:50:58.695Z,46.43
2018-02-17T11:53:26.287Z,39.93
2018-02-17T11:55:53.985Z,42.53
2018-02-17T11:58:21.692Z,39.63
2018-02-17T12:00:49.468Z,40.50
2018-02-17T12:03:17.061Z,38.83
2018-02-17T12:05:44.755Z,36.30
2018-02-17T12:08:12.645Z,37.83
2018-02-17T12:10:40.228Z,37.00
2018-02-17T12:13:07.958Z,57.70
2018-02-17T12:15:35.546Z,62.17
2018-02-17T12:18:03.140Z,33.67
2018-02-17T12:20:30.780Z,32.00
2018-02-17T12:22:58.357Z,34.43
2018-02-17T12:25:25.990Z,31.17
2018-02-17T12:27:53.633Z,34.03
2018-02-17T12:30:21.223Z,39.00
2018-02-17T12:32:48.925Z,34.87
2018-02-17T12:35:16.578Z,32.17
2018-02-17T12:37:44.219Z,33.57
2018-02-17T12:40:11.830Z,32.83
2018-02-17T12:42:39.569Z,29.47
2018-02-17T12:45:07.154Z,28.40
2018-02-17T12:47:34.807Z,31.63
2018-02-17T12:50:04.267Z,46.17
2018-02-17T12:52:33.947Z,54.97
2018-02-17T12:55:02.229Z,25.83
2018-02-17T12:57:30.904Z,27.87
2018-02-17T12:59:59.358Z,22.73
2018-02-17T13:02:26.935Z,27.47
2018-02-17T13:04:54.630Z,48.00
2018-02-17T13:07:22.250Z,27.23
2018-02-17T13:09:49.840Z,27.20
2018-02-17T13:12:17.483Z,24.53
2018-02-17T13:14:45.123Z,25.53
2018-02-17T13:17:12.722Z,24.33
2018-02-17T13:19:40.364Z,27.20
2018-02-17T13:22:07.964Z,28.10
2018-02-17T13:24:35.603Z,22.60
2018-02-17T13:27:03.273Z,20.70
2018-02-17T13:29:30.853Z,19.07
2018-02-17T13:31:58.424Z,20.53
2018-02-17T13:34:26.054Z,21.57
2018-02-17T13:36:53.617Z,19.70
2018-02-17T13:39:21.262Z,21.33
2018-02-17T13:41:48.954Z,22.33
2018-02-17T13:44:16.590Z,20.33
2018-02-17T13:46:44.254Z,24.40
2018-02-17T13:49:11.885Z,25.33
2018-02-17T13:51:39.479Z,25.50
2018-02-17T13:54:07.066Z,24.23
2018-02-17T13:56:34.678Z,29.00
2018-02-17T13:59:02.430Z,25.93
2018-02-17T14:01:30.022Z,27.07
2018-02-17T14:03:57.674Z,29.30
2018-02-17T14:06:25.337Z,24.00
2018-02-17T14:08:52.914Z,26.20
2018-02-17T14:11:20.570Z,29.10
2018-02-17T14:13:48.153Z,31.80
2018-02-17T14:16:15.802Z,29.93
2018-02-17T14:18:43.427Z,32.67
2018-02-17T14:21:11.019Z,29.33
2018-02-17T14:23:38.601Z,30.87
2018-02-17T14:26:06.267Z,28.60
2018-02-17T14:28:33.853Z,26.33
2018-02-17T14:31:01.437Z,29.00
2018-02-17T14:33:30.152Z,31.70
2018-02-17T14:35:57.748Z,31.87
2018-02-17T14:38:25.380Z,40.93
2018-02-17T14:40:53.030Z,33.40
2018-02-17T14:43:20.627Z,35.07
2018-02-17T14:45:48.230Z,45.83
2018-02-17T14:48:15.849Z,34.53
2018-02-17T14:50:43.421Z,31.80
2018-02-17T14:53:11.003Z,33.40
2018-02-17T14:55:38.632Z,36.77
2018-02-17T14:58:06.314Z,40.07
2018-02-17T15:00:34.007Z,42.90
2018-02-17T15:03:01.628Z,37.40
2018-02-17T15:05:29.272Z,39.47
2018-02-17T15:07:56.864Z,41.87
2018-02-17T15:10:24.841Z,44.47
2018-02-17T15:12:52.416Z,38.00
2018-02-17T15:15:20.096Z,37.27
2018-02-17T15:17:47.772Z,65.10
2018-02-17T15:20:15.337Z,42.40
2018-02-17T15:22:43.755Z,54.10
2018-02-17T15:25:11.445Z,65.17
2018-02-17T15:27:39.004Z,48.87
2018-02-17T15:30:06.643Z,38.80
2018-02-17T15:32:34.253Z,35.93
2018-02-17T15:35:01.847Z,34.37
2018-02-17T15:37:30.398Z,32.87
2018-02-17T15:39:58.272Z,32.27
2018-02-17T15:42:25.878Z,35.30
2018-02-17T15:44:53.456Z,37.23
2018-02-17T15:47:21.079Z,41.63
2018-02-17T15:49:48.665Z,38.27
2018-02-17T15:52:16.256Z,45.10
2018-02-17T15:54:43.914Z,50.33
2018-02-17T15:57:11.485Z,55.97
2018-02-17T15:59:39.067Z,63.37
2018-02-17T16:02:06.773Z,60.00
2018-02-17T16:04:34.365Z,55.00
2018-02-17T16:07:01.959Z,46.20
2018-02-17T16:09:29.599Z,39.17
2018-02-17T16:11:57.190Z,40.20
2018-02-17T16:14:24.851Z,34.70
2018-02-17T16:16:52.471Z,37.63
2018-02-17T16:19:20.039Z,33.57
2018-02-17T16:21:47.644Z,27.77
2018-02-17T16:24:15.669Z,30.23
2018-02-17T16:26:43.250Z,33.30
2018-02-17T16:29:10.832Z,31.17
2018-02-17T16:31:38.681Z,28.70
2018-02-17T16:34:06.250Z,28.90
2018-02-17T16:36:33.825Z,37.43
2018-02-17T16:39:01.490Z,31.10
2018-02-17T16:41:29.157Z,32.70
2018-02-17T16:43:56.778Z,31.77
2018-02-17T16:46:24.414Z,32.07
2018-02-17T16:48:52.061Z,34.87
2018-02-17T16:51:19.667Z,35.43
2018-02-17T16:53:47.312Z,43.73
2018-02-17T16:56:14.962Z,35.67
2018-02-17T16:58:42.623Z,41.53
2018-02-17T17:01:10.399Z,41.47
2018-02-17T17:03:38.096Z,40.03
2018-02-17T17:06:05.672Z,38.73
2018-02-17T17:08:33.407Z,40.90
2018-02-17T17:11:01.091Z,40.60
2018-02-17T17:13:28.666Z,42.97
2018-02-17T17:15:56.360Z,43.17
2018-02-17T17:18:23.947Z,41.70
2018-02-17T17:20:52.139Z,41.23
2018-02-17T17:23:19.798Z,41.70
2018-02-17T17:25:47.390Z,39.70
2018-02-17T17:28:15.114Z,35.50
2018-02-17T17:30:42.760Z,33.63
2018-02-17T17:33:10.384Z,29.13
2018-02-17T17:35:37.964Z,31.40
2018-02-17T17:38:05.616Z,29.77
2018-02-17T17:40:33.770Z,30.50
2018-02-17T17:43:01.447Z,27.20
2018-02-17T17:45:29.150Z,26.63
2018-02-17T17:47:57.207Z,28.37
2018-02-17T17:50:24.916Z,26.43
2018-02-17T17:52:52.610Z,29.23
2018-02-17T17:55:20.172Z,27.27
2018-02-17T17:57:47.748Z,26.40
2018-02-17T18:00:15.477Z,28.30
2018-02-17T18:02:43.053Z,24.83
2018-02-17T18:05:10.739Z,26.60
2018-02-17T18:07:38.483Z,29.10
2018-02-17T18:10:06.139Z,25.13
2018-02-17T18:12:33.785Z,26.40
2018-02-17T18:15:01.535Z,27.33
2018-02-17T18:17:29.118Z,25.47
2018-02-17T18:19:56.700Z,25.07
2018-02-17T18:22:24.341Z,27.67
2018-02-17T18:24:51.931Z,23.50
2018-02-17T18:27:19.517Z,39.73
2018-02-17T18:29:47.153Z,72.40
2018-02-17T18:32:15.534Z,46.97
2018-02-17T18:34:43.113Z,36.37
2018-02-17T18:37:10.821Z,41.23
2018-02-17T18:39:38.417Z,31.43
2018-02-17T18:42:06.084Z,28.80
2018-02-17T18:44:33.773Z,35.53
2018-02-17T18:47:01.436Z,40.97
2018-02-17T18:49:29.173Z,32.83
2018-02-17T18:51:56.908Z,45.17
2018-02-17T18:54:24.537Z,32.40
2018-02-17T18:56:52.256Z,38.13
2018-02-17T18:59:19.971Z,29.40
2018-02-17T19:01:47.691Z,35.93
2018-02-17T19:04:15.296Z,59.23
2018-02-17T19:06:43.333Z,36.53
2018-02-17T19:09:10.981Z,30.60
2018-02-17T19:11:38.685Z,25.30
2018-02-17T19:14:06.596Z,25.70
2018-02-17T19:16:34.258Z,27.93
2018-02-17T19:19:01.855Z,24.80
2018-02-17T19:21:29.498Z,25.10
2018-02-17T19:23:57.190Z,24.83
2018-02-17T19:26:24.812Z,26.97
2018-02-17T19:28:52.480Z,27.57
2018-02-17T19:31:20.251Z,31.57
2018-02-17T19:33:47.845Z,37.40
2018-02-17T19:36:16.237Z,34.63
2018-02-17T19:38:43.840Z,33.20
2018-02-17T19:41:11.464Z,32.27
2018-02-17T19:43:39.197Z,36.67
2018-02-17T19:46:06.843Z,39.40
2018-02-17T19:48:34.501Z,44.07
2018-02-17T19:51:02.162Z,41.40
2018-02-17T19:53:29.758Z,40.13
2018-02-17T19:55:57.397Z,38.13
2018-02-17T19:58:25.164Z,41.10
2018-02-17T20:00:52.758Z,51.03
2018-02-17T20:03:20.363Z,47.20
2018-02-17T20:05:48.063Z,44.97
2018-02-17T20:08:15.748Z,36.67
2018-02-17T20:10:43.463Z,37.33
2018-02-17T20:13:11.173Z,38.90
2018-02-17T20:15:39.100Z,38.03
2018-02-17T20:18:06.677Z,34.90
2018-02-17T20:20:34.324Z,33.67
2018-02-17T20:23:01.983Z,37.00
2018-02-17T20:25:29.579Z,33.83
2018-02-17T20:27:57.401Z,34.30
2018-02-17T20:30:25.113Z,33.47
2018-02-17T20:32:53.765Z,33.33
2018-02-17T20:35:21.481Z,28.47
2018-02-17T20:37:49.090Z,32.37
2018-02-17T20:40:16.674Z,26.77
2018-02-17T20:42:44.303Z,27.77
2018-02-17T20:45:12.034Z,27.43
2018-02-17T20:47:39.594Z,29.20
2018-02-17T20:50:07.252Z,27.87
2018-02-17T20:52:34.872Z,29.50
2018-02-17T20:55:02.561Z,28.33
2018-02-17T20:57:30.270Z,27.87
2018-02-17T20:59:57.833Z,28.80
2018-02-17T21:02:25.412Z,29.23
2018-02-17T21:04:53.206Z,27.67
2018-02-17T21:07:20.797Z,29.87
2018-02-17T21:09:48.453Z,26.80
2018-02-17T21:12:16.119Z,27.97
2018-02-17T21:14:44.550Z,28.23
2018-02-17T21:17:12.207Z,27.87
2018-02-17T21:19:39.855Z,28.43
2018-02-17T21:22:07.461Z,30.63
2018-02-17T21:24:35.046Z,32.10
2018-02-17T21:27:02.684Z,27.93
2018-02-17T21:29:30.252Z,30.57
2018-02-17T21:31:57.864Z,28.57
2018-02-17T21:34:25.615Z,31.07
2018-02-17T21:36:53.201Z,29.37
2018-02-17T21:39:20.760Z,27.43
2018-02-17T21:41:48.634Z,26.20
2018-02-17T21:44:16.220Z,29.27
2018-02-17T21:46:43.835Z,26.93
2018-02-17T21:49:11.490Z,26.23
2018-02-17T21:51:39.061Z,26.63
2018-02-17T21:54:07.242Z,28.00
2018-02-17T21:56:34.886Z,27.17
2018-02-17T21:59:02.451Z,27.53
2018-02-17T22:01:30.098Z,28.17
2018-02-17T22:03:57.716Z,27.57
2018-02-17T22:06:25.317Z,26.53
2018-02-17T22:08:52.892Z,27.47
2018-02-17T22:11:20.642Z,24.80
2018-02-17T22:13:48.228Z,26.50
2018-02-17T22:16:15.793Z,25.77
2018-02-17T22:18:43.429Z,24.80
2018-02-17T22:21:11.105Z,24.63
2018-02-17T22:23:38.697Z,26.10
2018-02-17T22:26:06.398Z,36.13
2018-02-17T22:28:34.089Z,23.93
2018-02-17T22:31:01.674Z,24.90
2018-02-17T22:33:29.348Z,24.27
2018-02-17T22:35:56.944Z,25.87
2018-02-17T22:38:24.658Z,26.30
2018-02-17T22:40:52.321Z,25.77
2018-02-17T22:43:19.910Z,24.10
2018-02-17T22:45:47.550Z,22.33
2018-02-17T22:48:15.235Z,22.83
2018-02-17T22:50:42.876Z,23.00
2018-02-17T22:53:10.522Z,23.30
2018-02-17T22:55:38.218Z,19.70
2018-02-17T22:58:05.791Z,23.70
2018-02-17T23:00:33.391Z,25.07
2018-02-17T23:03:01.035Z,25.40
2018-02-17T23:05:28.615Z,25.10
2018-02-17T23:07:56.198Z,26.50
2018-02-17T23:10:24.110Z,28.00
2018-02-17T23:12:52.663Z,27.63
2018-02-17T23:15:20.331Z,28.03
2018-02-17T23:17:47.966Z,26.23
2018-02-17T23:20:15.554Z,25.20
2018-02-17T23:22:43.120Z,25.80
2018-02-17T23:25:10.816Z,24.70
2018-02-17T23:27:38.493Z,23.50
2018-02-17T23:30:06.110Z,23.37
2018-02-17T23:32:33.819Z,24.70
2018-02-17T23:35:01.402Z,22.97
2018-02-17T23:37:28.999Z,27.77
2018-02-17T23:39:56.609Z,24.97
2018-02-17T23:42:24.192Z,24.10
2018-02-17T23:44:51.778Z,25.87
2018-02-17T23:47:19.429Z,26.03
2018-02-17T23:49:47.088Z,24.37
2018-02-17T23:52:14.678Z,26.57
2018-02-17T23:54:42.529Z,25.53
2018-02-17T23:57:10.142Z,28.03
2018-02-17T23:59:37.717Z,24.40
